Zim Panama — VSWW5 — position and weather

sailwx.info

Track history (hours):
 
Tides and Currents Weather Stations Pressure Air Temp Water Temp Dewpoint Dewpoint Depression Visibility Wind Speed Wind Dir Waves Ship Positions

Zim Panama

Last reported at 2014-Oct-20 11:08 UTC. Time now 2014-Oct-25 18:23 UTC.
Position N 36°18' E 014°41'.

Length 294.12 m; beam 32.2 m; draft 9.45 m.

Type: Ship (hazmat cat C). MMSI: 235474000.

Date/timePositionNaut miles runAvg speedWind from/ knotsBaromVisibWave heightAir tempDewpointWater temp
2014-Oct-20 11:08N 36°18' E 014°41'1018.1
2014-Oct-20 10:33N 36°21' E 014°29'1817.7
2014-Oct-20 09:33N 36°27' E 014°08'1717.4
2014-Oct-20 08:33N 36°33' E 013°48'19217.1
2014-Oct-19 21:22N 37°34' E 009°60'1518.2
2014-Oct-19 20:31N 37°30' E 009°41'1818.4
2014-Oct-19 19:33N 37°25' E 009°19'1917.9
2014-Oct-19 18:30N 37°19' E 008°57'1717.4
2014-Oct-19 17:33N 37°17' E 008°36'1717.6
2014-Oct-19 16:33N 37°17' E 008°14'1817.8
2014-Oct-19 15:33N 37°16' E 007°52'1817.8
2014-Oct-19 14:33N 37°16' E 007°30'1817.7
2014-Oct-19 13:31N 37°16' E 007°07'1917.2
2014-Oct-19 12:26N 37°15' E 006°43'1517.1
2014-Oct-19 11:33N 37°15' E 006°24'1916.6
2014-Oct-19 10:24N 37°12' E 006°01'20118.3
2014-Oct-18 23:23N 36°50' E 001°50'1518.2
2014-Oct-18 22:33N 36°48' E 001°31'1818.1
2014-Oct-18 21:32N 36°45' E 001°08'2218.4
2014-Oct-18 20:19N 36°42' E 000°41'1417.7
2014-Oct-18 19:32N 36°40' E 000°23'1818.0
2014-Oct-18 18:31N 36°36' E 000°01'3417.5
2014-Oct-18 16:33N 36°29' W 000°41'5618.0
2014-Oct-18 13:25N 36°21' W 001°50'16518.0
2014-Oct-18 04:16N 36°00' W 005°12'1318.4
2014-Oct-18 03:33N 35°57' W 005°28'90117.7
2014-Oct-16 00:31N 35°52' W 023°60'1817.3
2014-Oct-15 23:29N 35°52' W 024°22'1617.1
2014-Oct-15 22:33N 35°52' W 024°42'1717.5
2014-Oct-15 21:34N 35°52' W 025°03'1817.8
2014-Oct-15 20:33N 35°52' W 025°25'2017.4
2014-Oct-15 19:24N 35°52' W 025°50'  
Track history (hours):
 
Tides and Currents Weather Stations Pressure Air Temp Water Temp Dewpoint Dewpoint Depression Visibility Wind Speed Wind Dir Waves Ship Positions

Zim Panama

Last reported at 2014-Oct-20 11:08 UTC. Time now 2014-Oct-25 18:23 UTC.
Position N 36°18' E 014°41'.

Length 294.12 m; beam 32.2 m; draft 9.45 m.

Type: Ship (hazmat cat C). MMSI: 235474000.

Date/timePositionNaut miles runAvg speedWind from/ knotsBaromVisibWave heightAir tempDewpointWater temp
2014-Oct-20 11:08N 36°18' E 014°41'1018.1
2014-Oct-20 10:33N 36°21' E 014°29'1817.7
2014-Oct-20 09:33N 36°27' E 014°08'1717.4
2014-Oct-20 08:33N 36°33' E 013°48'19217.1
2014-Oct-19 21:22N 37°34' E 009°60'1518.2
2014-Oct-19 20:31N 37°30' E 009°41'1818.4
2014-Oct-19 19:33N 37°25' E 009°19'1917.9
2014-Oct-19 18:30N 37°19' E 008°57'1717.4
2014-Oct-19 17:33N 37°17' E 008°36'1717.6
2014-Oct-19 16:33N 37°17' E 008°14'1817.8
2014-Oct-19 15:33N 37°16' E 007°52'1817.8
2014-Oct-19 14:33N 37°16' E 007°30'1817.7
2014-Oct-19 13:31N 37°16' E 007°07'1917.2
2014-Oct-19 12:26N 37°15' E 006°43'1517.1
2014-Oct-19 11:33N 37°15' E 006°24'1916.6
2014-Oct-19 10:24N 37°12' E 006°01'20118.3
2014-Oct-18 23:23N 36°50' E 001°50'1518.2
2014-Oct-18 22:33N 36°48' E 001°31'1818.1
2014-Oct-18 21:32N 36°45' E 001°08'2218.4
2014-Oct-18 20:19N 36°42' E 000°41'1417.7
2014-Oct-18 19:32N 36°40' E 000°23'1818.0
2014-Oct-18 18:31N 36°36' E 000°01'3417.5
2014-Oct-18 16:33N 36°29' W 000°41'5618.0
2014-Oct-18 13:25N 36°21' W 001°50'16518.0
2014-Oct-18 04:16N 36°00' W 005°12'1318.4
2014-Oct-18 03:33N 35°57' W 005°28'90117.7
2014-Oct-16 00:31N 35°52' W 023°60'1817.3
2014-Oct-15 23:29N 35°52' W 024°22'1617.1
2014-Oct-15 22:33N 35°52' W 024°42'1717.5
2014-Oct-15 21:34N 35°52' W 025°03'1817.8
2014-Oct-15 20:33N 35°52' W 025°25'2017.4
2014-Oct-15 19:24N 35°52' W 025°50'  

Dump ship's entire track history